Time;durP1;ratioP1;P1;durP2;ratioP2;P2;SDS_P1;SDS_P2;PMS_P1;PMS_P2;Temp;Humidity;BMP_temperature;BMP_pressure;BME280_temperature;BME280_humidity;BME280_pressure;Samples;Min_cycle;Max_cycle;Signal;HPM_P1;HPM_P2
2023/02/27 00:00:15;;;;;;;3.83;2.70;;;-0.80;99.90;;;;;;5052952;28;20675;-63
2023/02/27 00:02:42;;;;;;;5.45;2.65;;;-0.80;99.90;;;;;;5052769;28;20186;-64
2023/02/27 00:05:11;;;;;;;4.15;3.40;;;-0.80;99.90;;;;;;5052694;28;20232;-63
2023/02/27 00:07:38;;;;;;;3.28;2.53;;;-0.80;99.90;;;;;;5053391;28;20202;-62
2023/02/27 00:10:07;;;;;;;4.40;2.63;;;-0.80;99.90;;;;;;5052928;28;20239;-63
2023/02/27 00:12:36;;;;;;;3.80;2.22;;;-0.80;99.90;;;;;;5053575;28;20206;-62
2023/02/27 00:15:05;;;;;;;3.40;2.55;;;-0.70;99.90;;;;;;5054118;28;20651;-63
2023/02/27 00:17:32;;;;;;;7.82;2.45;;;-0.70;99.90;;;;;;5053562;28;20201;-61
2023/02/27 00:19:59;;;;;;;4.93;2.30;;;-0.70;99.90;;;;;;5053501;28;20229;-62
2023/02/27 00:22:27;;;;;;;4.32;2.30;;;-0.70;99.90;;;;;;5053234;28;20555;-63
2023/02/27 00:24:54;;;;;;;4.45;2.40;;;-0.70;99.90;;;;;;5053443;28;20209;-63
2023/02/27 00:27:20;;;;;;;2.03;1.83;;;-0.70;99.90;;;;;;5056921;28;20208;-63
2023/02/27 00:29:47;;;;;;;2.28;2.08;;;-0.60;99.90;;;;;;5057470;28;20201;-64
2023/02/27 00:32:14;;;;;;;4.65;2.60;;;-0.70;99.90;;;;;;5057445;28;20209;-65
2023/02/27 00:34:41;;;;;;;3.17;2.55;;;-0.70;99.90;;;;;;5057149;28;20209;-62
2023/02/27 00:37:08;;;;;;;4.07;2.20;;;-0.60;99.90;;;;;;5056734;28;20321;-63
2023/02/27 00:39:36;;;;;;;5.40;2.83;;;-0.60;99.90;;;;;;5057305;28;20209;-63
2023/02/27 00:42:03;;;;;;;2.97;2.45;;;-0.70;99.90;;;;;;5056899;28;20588;-63
2023/02/27 00:44:29;;;;;;;3.70;2.88;;;-0.70;99.90;;;;;;5056774;28;20717;-63
2023/02/27 00:46:56;;;;;;;6.22;3.28;;;-0.70;99.90;;;;;;5056480;28;20736;-63
2023/02/27 00:49:24;;;;;;;6.18;3.45;;;-0.70;99.90;;;;;;5057113;28;20201;-63
2023/02/27 00:51:51;;;;;;;6.88;3.53;;;-0.80;99.90;;;;;;5057147;28;20202;-63
2023/02/27 00:54:17;;;;;;;3.90;3.50;;;-0.90;99.90;;;;;;5056644;28;20589;-63
2023/02/27 00:56:45;;;;;;;10.00;4.13;;;-0.90;99.90;;;;;;5056366;28;20721;-63
2023/02/27 00:59:12;;;;;;;4.45;3.63;;;-1.00;99.90;;;;;;5056438;28;20690;-63
2023/02/27 01:01:39;;;;;;;4.72;3.00;;;-1.00;99.90;;;;;;5056204;28;20201;-63
2023/02/27 01:04:06;;;;;;;7.32;4.32;;;-1.00;99.90;;;;;;5056613;28;20232;-63
2023/02/27 01:06:33;;;;;;;4.80;2.70;;;-1.00;99.90;;;;;;5056398;28;20218;-63
2023/02/27 01:08:59;;;;;;;4.97;2.75;;;-1.00;99.90;;;;;;5056498;28;20208;-63
2023/02/27 01:11:26;;;;;;;4.30;3.30;;;-1.00;99.90;;;;;;5056580;28;20205;-63
2023/02/27 01:13:54;;;;;;;4.65;3.25;;;-1.00;99.90;;;;;;5055998;28;20206;-64
2023/02/27 01:16:21;;;;;;;4.97;3.20;;;-1.00;99.90;;;;;;5055669;28;20233;-63
2023/02/27 01:18:48;;;;;;;4.07;3.40;;;-1.10;99.90;;;;;;5056121;28;20206;-63
2023/02/27 01:21:14;;;;;;;5.43;3.53;;;-1.10;99.90;;;;;;5055963;28;20221;-62
2023/02/27 01:23:41;;;;;;;6.55;2.92;;;-1.10;99.90;;;;;;5055761;28;20205;-63
2023/02/27 01:26:08;;;;;;;4.95;3.53;;;-1.10;99.90;;;;;;5055601;28;20702;-63
2023/02/27 01:28:35;;;;;;;4.15;3.03;;;-1.10;99.90;;;;;;5055940;28;20580;-62
2023/02/27 01:31:03;;;;;;;3.85;3.00;;;-1.00;99.90;;;;;;5056163;28;20202;-62
2023/02/27 01:33:30;;;;;;;6.40;3.20;;;-1.00;99.90;;;;;;5056171;28;20206;-62
2023/02/27 01:35:56;;;;;;;3.75;3.40;;;-1.00;99.90;;;;;;5055731;28;20233;-62
2023/02/27 01:38:23;;;;;;;4.18;3.45;;;-1.10;99.90;;;;;;5055894;28;20211;-62
2023/02/27 01:40:50;;;;;;;4.72;3.38;;;-1.10;99.90;;;;;;5056102;28;20576;-63
2023/02/27 01:43:19;;;;;;;4.28;2.85;;;-1.00;99.90;;;;;;5056260;28;20654;-63
2023/02/27 01:45:47;;;;;;;5.57;3.00;;;-1.10;99.90;;;;;;5056202;28;20236;-62
2023/02/27 01:48:19;;;;;;;4.38;2.78;;;-1.10;99.90;;;;;;5055788;28;20292;-62
2023/02/27 01:50:50;;;;;;;3.60;3.05;;;-1.10;99.90;;;;;;5056042;28;20186;-63
2023/02/27 01:53:18;;;;;;;5.03;2.75;;;-1.10;99.90;;;;;;5056905;28;20523;-63
2023/02/27 01:55:47;;;;;;;4.30;2.33;;;-1.10;99.90;;;;;;5056410;28;20225;-63
2023/02/27 01:58:15;;;;;;;3.25;2.95;;;-1.10;99.90;;;;;;5056156;28;20305;-63
2023/02/27 02:00:42;;;;;;;4.82;2.83;;;-1.10;99.90;;;;;;5055883;28;20580;-62
2023/02/27 02:03:23;;;;;;;5.28;2.55;;;-1.10;99.90;;;;;;5055663;28;20201;-64
2023/02/27 02:05:53;;;;;;;7.90;4.03;;;-1.10;99.90;;;;;;5055602;28;20225;-61
2023/02/27 02:08:21;;;;;;;3.40;3.10;;;-1.10;99.90;;;;;;5055719;28;20186;-63
2023/02/27 02:10:50;;;;;;;4.00;2.63;;;-1.10;99.90;;;;;;5055484;28;20197;-63
2023/02/27 02:13:18;;;;;;;7.35;4.47;;;-1.10;99.90;;;;;;5055918;28;20205;-62
2023/02/27 02:15:51;;;;;;;4.83;2.57;;;-1.10;99.90;;;;;;5055206;28;20233;-62
2023/02/27 02:18:27;;;;;;;6.57;2.92;;;-1.10;99.90;;;;;;5055592;28;20193;-62
2023/02/27 02:21:24;;;;;;;3.45;2.92;;;-1.10;99.90;;;;;;5055179;28;20185;-62
2023/02/27 02:24:27;;;;;;;4.22;2.83;;;-1.10;99.90;;;;;;5055835;28;20201;-63
2023/02/27 02:27:01;;;;;;;3.70;2.55;;;-1.20;99.90;;;;;;5054911;28;20710;-61
2023/02/27 02:30:08;;;;;;;4.07;2.47;;;-1.20;99.90;;;;;;5055135;28;20190;-62
2023/02/27 02:33:01;;;;;;;5.32;3.50;;;-1.20;99.90;;;;;;5054663;28;20573;-62
2023/02/27 02:36:11;;;;;;;4.32;2.92;;;-1.20;99.90;;;;;;5017592;28;20710;-63
2023/02/27 02:39:28;;;;;;;4.65;3.20;;;-1.20;99.90;;;;;;5054958;28;20209;-62
2023/02/27 02:42:04;;;;;;;4.43;3.70;;;-1.30;99.90;;;;;;4981557;28;20215;-63
2023/02/27 02:44:40;;;;;;;5.50;3.35;;;-1.30;99.90;;;;;;5044072;28;20202;-63
2023/02/27 02:47:18;;;;;;;3.83;3.13;;;-1.30;99.90;;;;;;5054552;28;20698;-63
2023/02/27 02:49:54;;;;;;;7.40;3.80;;;-1.30;99.90;;;;;;5053259;28;20182;-62
2023/02/27 02:52:27;;;;;;;5.70;3.45;;;-1.30;99.90;;;;;;5055170;28;20186;-62
2023/02/27 02:55:01;;;;;;;4.10;3.08;;;-1.30;99.90;;;;;;5054591;28;20197;-63
2023/02/27 02:57:36;;;;;;;8.02;3.50;;;-1.30;99.90;;;;;;5054292;28;20709;-62
2023/02/27 03:00:10;;;;;;;6.90;3.90;;;-1.30;99.90;;;;;;5054730;28;20193;-62
2023/02/27 03:02:43;;;;;;;6.35;4.20;;;-1.40;99.90;;;;;;5054140;28;20186;-62
2023/02/27 03:05:15;;;;;;;6.80;3.40;;;-1.30;99.90;;;;;;5054666;28;20228;-64
2023/02/27 03:07:46;;;;;;;3.50;2.90;;;-1.30;99.90;;;;;;5054351;28;20201;-62
2023/02/27 03:10:17;;;;;;;2.92;2.33;;;-1.30;99.90;;;;;;5054089;28;20186;-62
2023/02/27 03:12:50;;;;;;;9.77;4.00;;;-1.40;99.90;;;;;;5053988;28;20197;-62
2023/02/27 03:15:21;;;;;;;5.65;3.38;;;-1.40;99.90;;;;;;5054411;28;20225;-62
2023/02/27 03:17:54;;;;;;;5.53;2.80;;;-1.40;99.90;;;;;;5054575;28;20332;-62
2023/02/27 03:20:24;;;;;;;4.30;2.90;;;-1.40;99.90;;;;;;5054372;28;20300;-61
2023/02/27 03:22:56;;;;;;;6.60;4.20;;;-1.50;99.90;;;;;;5054616;28;20209;-62
2023/02/27 03:25:26;;;;;;;3.97;3.35;;;-1.60;99.90;;;;;;5054698;28;20299;-63
2023/02/27 03:27:57;;;;;;;6.82;3.50;;;-1.60;99.90;;;;;;5054075;28;20604;-62
2023/02/27 03:30:29;;;;;;;4.88;3.17;;;-1.70;99.90;;;;;;5053494;28;20613;-62
2023/02/27 03:33:02;;;;;;;6.15;3.63;;;-1.70;99.90;;;;;;5054119;28;20228;-63
2023/02/27 03:35:41;;;;;;;3.97;3.10;;;-1.80;99.90;;;;;;5053277;28;20233;-62
2023/02/27 03:38:19;;;;;;;6.28;4.32;;;-1.80;99.90;;;;;;5053245;28;20213;-63
2023/02/27 03:40:53;;;;;;;7.70;3.30;;;-1.80;99.90;;;;;;5053633;28;20185;-62
2023/02/27 03:43:30;;;;;;;5.50;3.47;;;-1.80;99.90;;;;;;5053683;28;20559;-63
2023/02/27 03:46:02;;;;;;;3.78;3.33;;;-1.80;99.90;;;;;;5053213;28;20221;-62
2023/02/27 03:48:29;;;;;;;4.63;3.53;;;-1.80;99.90;;;;;;5053432;28;20182;-62
2023/02/27 03:50:56;;;;;;;6.25;3.45;;;-1.80;99.90;;;;;;5053589;28;20213;-62
2023/02/27 03:53:30;;;;;;;4.20;3.80;;;-1.80;99.90;;;;;;5053870;28;20202;-62
2023/02/27 03:56:00;;;;;;;5.25;3.95;;;-1.80;99.90;;;;;;5053396;28;20225;-62
2023/02/27 03:58:28;;;;;;;7.15;3.50;;;-1.80;99.90;;;;;;5053495;28;20230;-62
2023/02/27 04:00:55;;;;;;;3.90;3.50;;;-1.80;99.90;;;;;;5053299;28;20201;-62
2023/02/27 04:03:22;;;;;;;7.72;3.65;;;-1.70;99.90;;;;;;5053553;28;20204;-63
2023/02/27 04:05:49;;;;;;;4.30;3.80;;;-1.70;99.90;;;;;;5053831;28;20248;-61
2023/02/27 04:11:35;;;;;;;3.88;3.15;;;-1.60;99.90;;;;;;5091643;28;20939;-63
2023/02/27 04:14:17;;;;;;;5.43;3.63;;;-1.60;99.90;;;;;;5090962;28;20189;-63
2023/02/27 04:17:15;;;;;;;4.90;3.63;;;-1.60;99.90;;;;;;5090935;28;20220;-63
2023/02/27 04:20:03;;;;;;;3.35;3.05;;;-1.60;99.90;;;;;;5056579;28;20192;-63
2023/02/27 04:22:36;;;;;;;5.43;3.75;;;-1.60;99.90;;;;;;5091393;28;20646;-63
2023/02/27 04:25:16;;;;;;;5.43;3.85;;;-1.60;99.90;;;;;;5090791;28;22082;-65
2023/02/27 04:27:52;;;;;;;5.30;3.80;;;-1.60;99.90;;;;;;5090518;28;20568;-64
2023/02/27 04:30:27;;;;;;;6.88;4.10;;;-1.60;99.90;;;;;;5090271;28;20553;-64
2023/02/27 04:32:57;;;;;;;4.60;3.75;;;-1.60;99.90;;;;;;5090834;28;20218;-65
2023/02/27 04:35:27;;;;;;;6.32;3.25;;;-1.60;99.90;;;;;;5090937;28;20225;-64
2023/02/27 04:37:59;;;;;;;8.35;3.83;;;-1.60;99.90;;;;;;5090681;28;20189;-64
2023/02/27 04:40:32;;;;;;;8.18;4.30;;;-1.60;99.90;;;;;;5090267;28;20185;-64
2023/02/27 04:43:03;;;;;;;3.88;2.70;;;-1.60;99.90;;;;;;5091041;28;20242;-64
2023/02/27 04:45:32;;;;;;;5.80;3.28;;;-1.60;99.90;;;;;;5090554;28;20220;-66
2023/02/27 04:48:03;;;;;;;4.72;3.47;;;-1.50;99.90;;;;;;5090667;28;20205;-63
2023/02/27 04:50:35;;;;;;;6.78;4.30;;;-1.50;99.90;;;;;;5090483;28;20208;-64
2023/02/27 04:53:06;;;;;;;7.22;4.40;;;-1.50;99.90;;;;;;5090685;28;20188;-65
2023/02/27 04:55:37;;;;;;;7.57;4.25;;;-1.50;99.90;;;;;;5090392;28;20225;-64
2023/02/27 04:58:10;;;;;;;6.32;3.50;;;-1.50;99.90;;;;;;5090264;28;20184;-63
2023/02/27 05:00:39;;;;;;;5.15;4.05;;;-1.50;99.90;;;;;;5090063;28;20200;-62
2023/02/27 05:03:11;;;;;;;6.03;3.53;;;-1.60;99.90;;;;;;5090257;28;20204;-64
2023/02/27 05:05:43;;;;;;;5.25;3.75;;;-1.70;99.90;;;;;;5090499;28;20251;-63
2023/02/27 05:08:16;;;;;;;7.47;4.50;;;-1.70;99.90;;;;;;5090408;28;20185;-63
2023/02/27 05:10:47;;;;;;;3.53;3.22;;;-1.80;99.90;;;;;;5089421;28;20227;-64
2023/02/27 05:13:20;;;;;;;4.43;3.90;;;-1.80;99.90;;;;;;5089888;28;20181;-63
2023/02/27 05:15:50;;;;;;;7.20;4.15;;;-1.90;99.90;;;;;;5089417;28;20227;-63
2023/02/27 05:18:20;;;;;;;4.97;3.75;;;-1.90;99.90;;;;;;5089742;28;20579;-63
2023/02/27 05:20:55;;;;;;;12.23;3.90;;;-1.90;99.90;;;;;;5087321;28;20205;-62
2023/02/27 05:23:30;;;;;;;4.50;4.10;;;-1.90;99.90;;;;;;5076688;28;20189;-63
2023/02/27 05:26:01;;;;;;;5.47;4.32;;;-1.90;99.90;;;;;;5076552;28;20224;-64
2023/02/27 05:28:35;;;;;;;8.15;5.22;;;-1.80;99.90;;;;;;5076741;28;20186;-64
2023/02/27 05:31:07;;;;;;;4.70;4.13;;;-1.70;99.90;;;;;;5076443;28;20204;-64
2023/02/27 05:33:38;;;;;;;8.68;4.82;;;-1.60;99.90;;;;;;5076629;28;20190;-64
2023/02/27 05:36:10;;;;;;;5.70;4.28;;;-1.50;99.90;;;;;;5076566;28;20221;-64
2023/02/27 05:38:42;;;;;;;5.38;4.47;;;-1.40;99.90;;;;;;5074201;28;20193;-63
2023/02/27 05:41:11;;;;;;;7.50;4.63;;;-1.30;99.90;;;;;;5058656;28;20805;-63
2023/02/27 05:43:44;;;;;;;8.82;4.65;;;-1.20;99.90;;;;;;5067869;28;20212;-64
2023/02/27 05:46:15;;;;;;;11.35;5.18;;;-1.20;99.90;;;;;;5068087;28;20225;-65
2023/02/27 05:48:47;;;;;;;9.90;4.45;;;-1.10;99.90;;;;;;5064470;28;20576;-62
2023/02/27 05:51:16;;;;;;;7.50;4.45;;;-1.00;99.90;;;;;;5074202;28;20629;-64
2023/02/27 05:53:48;;;;;;;4.40;4.00;;;-0.90;99.90;;;;;;5075835;28;20205;-64
2023/02/27 05:56:18;;;;;;;6.22;4.40;;;-0.90;99.90;;;;;;5076051;28;20221;-64
2023/02/27 05:58:50;;;;;;;7.63;4.53;;;-0.80;99.90;;;;;;5077502;28;20193;-65
2023/02/27 06:01:17;;;;;;;4.72;3.75;;;-0.80;99.90;;;;;;5079149;28;20177;-64
2023/02/27 06:03:44;;;;;;;4.82;3.67;;;-0.70;99.90;;;;;;5076826;28;20233;-65
2023/02/27 06:06:15;;;;;;;7.30;5.05;;;-0.70;99.90;;;;;;5076435;28;20729;-66
2023/02/27 06:08:42;;;;;;;5.75;3.90;;;-0.60;99.90;;;;;;5077210;28;20275;-64
2023/02/27 06:11:09;;;;;;;8.20;4.97;;;-0.60;99.90;;;;;;5075783;28;20260;-64
2023/02/27 06:13:35;;;;;;;7.97;4.78;;;-0.60;99.90;;;;;;5075383;28;20669;-65
2023/02/27 06:16:04;;;;;;;8.02;4.78;;;-0.50;99.90;;;;;;5076252;28;20240;-65
2023/02/27 06:18:31;;;;;;;5.28;4.70;;;-0.50;99.90;;;;;;5076738;28;20197;-64
2023/02/27 06:20:57;;;;;;;6.97;4.05;;;-0.40;99.90;;;;;;5076744;28;20205;-63
2023/02/27 06:23:24;;;;;;;5.43;4.78;;;-0.40;99.90;;;;;;5075614;28;20205;-64
2023/02/27 06:25:51;;;;;;;5.20;4.70;;;-0.40;99.90;;;;;;5075091;28;20706;-64
2023/02/27 06:28:18;;;;;;;5.88;5.07;;;-0.40;99.90;;;;;;5076556;28;20292;-65
2023/02/27 06:30:45;;;;;;;6.10;5.50;;;-0.40;99.90;;;;;;5075896;28;20216;-64
2023/02/27 06:33:14;;;;;;;11.07;5.75;;;-0.30;99.90;;;;;;5075426;28;20243;-65
2023/02/27 06:35:40;;;;;;;7.40;5.70;;;-0.20;99.90;;;;;;5076386;28;20275;-64
2023/02/27 06:38:07;;;;;;;8.80;4.90;;;-0.20;99.90;;;;;;5076683;28;20205;-63
2023/02/27 06:40:34;;;;;;;11.40;5.22;;;-0.20;99.90;;;;;;5065154;28;20204;-64
2023/02/27 06:43:01;;;;;;;5.72;5.05;;;-0.20;99.90;;;;;;5073489;28;20209;-63
2023/02/27 06:45:28;;;;;;;7.15;5.25;;;-0.10;99.90;;;;;;5073954;28;20709;-63
2023/02/27 06:47:55;;;;;;;6.65;4.63;;;-0.10;99.90;;;;;;5068313;28;20201;-63
2023/02/27 06:50:23;;;;;;;6.63;4.80;;;-0.10;99.90;;;;;;5059923;28;20221;-65
2023/02/27 06:52:49;;;;;;;8.32;5.35;;;-0.10;99.90;;;;;;5060219;28;20572;-65
2023/02/27 06:55:19;;;;;;;7.60;5.57;;;-0.10;99.90;;;;;;5055269;28;20255;-64
2023/02/27 06:57:46;;;;;;;7.30;5.00;;;0.00;99.90;;;;;;5062264;28;20201;-64
2023/02/27 07:00:14;;;;;;;5.35;4.85;;;0.00;99.90;;;;;;5063674;28;20224;-64
2023/02/27 07:02:41;;;;;;;7.93;4.90;;;0.00;99.90;;;;;;5061390;28;20211;-65
2023/02/27 07:05:10;;;;;;;6.45;4.75;;;0.00;99.90;;;;;;5060058;28;20233;-66
2023/02/27 07:07:39;;;;;;;10.20;5.20;;;0.00;99.90;;;;;;5055285;28;20217;-63
2023/02/27 07:10:07;;;;;;;10.85;4.40;;;0.00;99.90;;;;;;5053843;28;20774;-63
2023/02/27 07:12:33;;;;;;;9.10;5.57;;;0.10;99.90;;;;;;5054017;28;20655;-64
2023/02/27 07:15:00;;;;;;;6.63;5.18;;;0.10;99.90;;;;;;5054941;28;20568;-64
2023/02/27 07:17:27;;;;;;;7.72;4.50;;;0.10;99.90;;;;;;5056125;28;20216;-65
2023/02/27 07:19:54;;;;;;;5.60;4.95;;;0.20;99.90;;;;;;5077438;28;20201;-64
2023/02/27 07:22:21;;;;;;;9.32;4.57;;;0.30;99.90;;;;;;5073411;28;20232;-65
2023/02/27 07:24:49;;;;;;;7.65;5.10;;;0.30;99.90;;;;;;5071266;28;20224;-64
2023/02/27 07:27:16;;;;;;;7.30;5.50;;;0.40;99.90;;;;;;5055636;28;20572;-64
2023/02/27 07:29:42;;;;;;;6.40;4.35;;;0.50;99.90;;;;;;5060048;28;20211;-63
2023/02/27 07:32:10;;;;;;;7.28;5.78;;;0.50;99.90;;;;;;5067017;28;20658;-63
2023/02/27 07:34:37;;;;;;;5.90;5.40;;;0.60;99.90;;;;;;5074208;28;20211;-64
2023/02/27 07:37:04;;;;;;;10.65;6.55;;;0.60;99.90;;;;;;5074017;28;20229;-63
2023/02/27 07:39:30;;;;;;;9.02;4.85;;;0.70;99.90;;;;;;5074710;28;20201;-64
2023/02/27 07:41:59;;;;;;;8.38;5.97;;;0.60;99.90;;;;;;5074018;28;20201;-64
2023/02/27 07:44:25;;;;;;;11.60;5.90;;;0.60;99.90;;;;;;5074138;28;20204;-64
2023/02/27 07:46:52;;;;;;;7.55;5.22;;;0.60;99.90;;;;;;5074089;28;20225;-65
2023/02/27 07:49:19;;;;;;;8.55;4.95;;;0.80;99.90;;;;;;5073698;28;20577;-64
2023/02/27 07:51:46;;;;;;;6.00;4.75;;;0.90;99.90;;;;;;5073965;28;20217;-64
2023/02/27 07:54:12;;;;;;;6.40;5.25;;;1.00;99.90;;;;;;5073860;28;20201;-65
2023/02/27 07:56:39;;;;;;;8.13;5.25;;;1.10;99.90;;;;;;5073426;28;20236;-64
2023/02/27 07:59:07;;;;;;;10.00;5.47;;;1.10;99.90;;;;;;5073733;28;20197;-64
2023/02/27 08:01:34;;;;;;;12.10;6.10;;;1.20;99.90;;;;;;5073557;28;20197;-65
2023/02/27 08:04:01;;;;;;;8.55;5.30;;;1.30;99.90;;;;;;5073501;28;20204;-64
2023/02/27 08:06:28;;;;;;;6.40;4.75;;;1.30;99.90;;;;;;5073568;28;20225;-64
2023/02/27 08:08:55;;;;;;;6.88;5.28;;;1.40;99.90;;;;;;5074095;28;20201;-65
2023/02/27 08:11:22;;;;;;;8.25;5.65;;;1.40;99.90;;;;;;5073969;28;20205;-64
2023/02/27 08:13:49;;;;;;;6.65;5.70;;;1.50;99.90;;;;;;5073532;28;20200;-64
2023/02/27 08:16:18;;;;;;;8.05;4.93;;;1.40;99.90;;;;;;5074190;28;20628;-65
2023/02/27 08:18:44;;;;;;;6.85;5.55;;;1.50;99.90;;;;;;5074350;28;20197;-65
2023/02/27 08:21:11;;;;;;;8.00;5.88;;;1.40;99.90;;;;;;5074638;28;20204;-65
2023/02/27 08:23:38;;;;;;;12.07;6.15;;;1.30;99.90;;;;;;5074371;28;20219;-63
2023/02/27 08:26:05;;;;;;;6.93;5.18;;;1.20;99.90;;;;;;5074160;28;20220;-64
2023/02/27 08:28:32;;;;;;;13.98;6.88;;;1.10;99.90;;;;;;5074241;28;20580;-63
2023/02/27 08:30:59;;;;;;;7.03;5.40;;;1.00;99.90;;;;;;5074278;28;20231;-61
2023/02/27 08:33:27;;;;;;;7.55;5.65;;;1.10;99.90;;;;;;5074224;28;20296;-64
2023/02/27 08:35:54;;;;;;;11.02;6.95;;;1.30;99.90;;;;;;5074194;28;20213;-66
2023/02/27 08:38:21;;;;;;;6.88;5.90;;;1.60;99.90;;;;;;5074413;28;20725;-65
2023/02/27 08:40:52;;;;;;;9.85;5.68;;;1.80;99.90;;;;;;5073802;28;20201;-63
2023/02/27 08:43:18;;;;;;;6.50;5.43;;;2.10;99.90;;;;;;5073436;28;20347;-65
2023/02/27 08:45:46;;;;;;;6.63;4.70;;;2.20;99.90;;;;;;5073519;28;20728;-64
2023/02/27 08:48:14;;;;;;;5.72;4.88;;;2.30;99.90;;;;;;5073828;28;20201;-65
2023/02/27 08:50:43;;;;;;;10.27;5.30;;;2.40;99.90;;;;;;5073601;28;20224;-65
2023/02/27 08:53:10;;;;;;;7.03;5.20;;;2.40;99.90;;;;;;5073368;28;20270;-66
2023/02/27 08:55:37;;;;;;;5.40;4.50;;;2.40;99.90;;;;;;5073597;28;20225;-64
2023/02/27 08:58:04;;;;;;;6.07;4.82;;;2.40;99.90;;;;;;5076798;28;20211;-65
2023/02/27 09:00:31;;;;;;;10.30;4.78;;;2.30;99.90;;;;;;5078089;28;20220;-65
2023/02/27 09:02:58;;;;;;;11.73;4.95;;;2.30;99.90;;;;;;5077459;28;20212;-64
2023/02/27 09:05:25;;;;;;;8.90;5.30;;;2.20;99.90;;;;;;5077322;28;20251;-64
2023/02/27 09:07:54;;;;;;;5.90;4.88;;;2.30;99.90;;;;;;5077521;28;20211;-65
2023/02/27 09:10:21;;;;;;;7.40;4.80;;;2.30;99.90;;;;;;5076863;28;20240;-65
2023/02/27 09:12:49;;;;;;;5.75;4.95;;;2.40;99.90;;;;;;5077481;28;20242;-65
2023/02/27 09:15:16;;;;;;;10.25;4.90;;;2.50;99.90;;;;;;5077898;28;20217;-66
2023/02/27 09:17:43;;;;;;;6.57;4.45;;;2.60;99.90;;;;;;5076981;28;20200;-66
2023/02/27 09:20:11;;;;;;;11.18;5.35;;;2.70;99.90;;;;;;5077254;28;20220;-66
2023/02/27 09:22:38;;;;;;;7.15;4.45;;;2.80;99.90;;;;;;5077258;28;20197;-65
2023/02/27 09:25:07;;;;;;;5.72;4.15;;;3.00;99.90;;;;;;5077575;28;20578;-66
2023/02/27 09:27:34;;;;;;;8.43;5.20;;;3.10;99.90;;;;;;5077449;28;20232;-65
2023/02/27 09:30:01;;;;;;;9.90;4.25;;;3.20;99.90;;;;;;5077219;28;20201;-65
2023/02/27 09:32:28;;;;;;;8.45;4.88;;;3.30;99.90;;;;;;5076834;28;20587;-65
2023/02/27 09:34:54;;;;;;;11.25;5.25;;;3.40;99.90;;;;;;5076698;28;20201;-66
2023/02/27 09:37:23;;;;;;;5.55;4.40;;;3.50;99.90;;;;;;5077182;28;20212;-65
2023/02/27 09:39:50;;;;;;;9.68;4.18;;;3.60;99.90;;;;;;5077451;28;20205;-65
2023/02/27 09:42:22;;;;;;;6.30;4.13;;;3.70;99.90;;;;;;5077595;28;20201;-65
2023/02/27 09:44:50;;;;;;;6.38;3.50;;;3.70;99.90;;;;;;5077271;28;20185;-64
2023/02/27 09:47:23;;;;;;;5.15;3.70;;;3.60;99.90;;;;;;5080550;28;20201;-64
2023/02/27 09:49:57;;;;;;;5.38;4.00;;;3.60;99.90;;;;;;5077871;28;20185;-65
2023/02/27 09:52:24;;;;;;;7.07;4.05;;;3.70;99.90;;;;;;5077277;28;20351;-66
2023/02/27 09:54:53;;;;;;;6.22;3.33;;;3.80;99.90;;;;;;5077020;28;20211;-66
2023/02/27 09:57:30;;;;;;;5.22;3.75;;;3.90;99.90;;;;;;5078342;28;20292;-64
2023/02/27 10:00:03;;;;;;;4.25;3.75;;;4.10;99.90;;;;;;5077234;28;20212;-64
2023/02/27 10:02:44;;;;;;;5.90;3.90;;;4.00;98.80;;;;;;5077177;28;20185;-65
2023/02/27 10:05:22;;;;;;;7.25;3.85;;;3.90;98.80;;;;;;5077080;28;20229;-65
2023/02/27 10:07:56;;;;;;;6.78;3.35;;;3.80;99.40;;;;;;5077028;28;20197;-64
2023/02/27 10:10:30;;;;;;;5.40;3.67;;;3.90;99.50;;;;;;5076784;28;20208;-64
2023/02/27 10:13:23;;;;;;;5.90;3.53;;;4.10;99.50;;;;;;5076429;28;20204;-64
2023/02/27 10:15:53;;;;;;;8.68;4.10;;;4.40;98.60;;;;;;5066119;28;20229;-64
2023/02/27 10:18:24;;;;;;;5.70;2.63;;;4.50;97.40;;;;;;5076363;28;20212;-65
2023/02/27 10:20:55;;;;;;;3.70;3.10;;;4.50;96.90;;;;;;5076193;28;20190;-65
2023/02/27 10:23:30;;;;;;;3.95;3.10;;;4.50;96.70;;;;;;5076858;28;20276;-65
2023/02/27 10:25:58;;;;;;;4.05;2.75;;;4.50;96.80;;;;;;5076586;28;20221;-65
2023/02/27 10:28:33;;;;;;;5.38;3.00;;;4.40;96.70;;;;;;5076344;28;20204;-66
2023/02/27 10:31:01;;;;;;;7.10;3.30;;;4.50;96.80;;;;;;5075465;28;20200;-64
2023/02/27 10:33:33;;;;;;;3.47;2.30;;;4.60;96.50;;;;;;5075559;28;20555;-64
2023/02/27 10:36:01;;;;;;;5.25;2.88;;;4.60;96.10;;;;;;5075983;28;20678;-65
2023/02/27 10:38:33;;;;;;;5.65;2.70;;;4.60;95.60;;;;;;5076247;28;20201;-66
2023/02/27 10:41:01;;;;;;;5.70;3.05;;;4.70;95.50;;;;;;5075500;28;20568;-67
2023/02/27 10:43:30;;;;;;;10.68;3.28;;;4.70;95.00;;;;;;5075005;28;20205;-65
2023/02/27 10:46:00;;;;;;;6.47;3.50;;;4.60;94.70;;;;;;5074734;28;20221;-64
2023/02/27 10:48:27;;;;;;;7.75;3.47;;;4.60;94.80;;;;;;5074825;28;20200;-66
2023/02/27 10:51:24;;;;;;;7.95;3.30;;;4.50;94.50;;;;;;5075191;28;20712;-65
2023/02/27 10:53:52;;;;;;;6.90;3.83;;;4.70;95.20;;;;;;5074659;28;20198;-65
2023/02/27 10:56:25;;;;;;;4.70;3.97;;;5.00;94.80;;;;;;5075228;28;20320;-66
2023/02/27 10:59:04;;;;;;;4.82;3.47;;;5.30;94.10;;;;;;5074509;28;20188;-65
2023/02/27 11:01:43;;;;;;;6.25;2.80;;;5.70;92.90;;;;;;5074534;28;20181;-65
2023/02/27 11:04:11;;;;;;;5.25;3.20;;;5.80;91.40;;;;;;5074209;28;20673;-65
2023/02/27 11:06:38;;;;;;;8.75;4.20;;;5.90;90.80;;;;;;5073966;28;20228;-65
2023/02/27 11:09:18;;;;;;;5.20;3.20;;;5.80;90.20;;;;;;5074011;28;20670;-65
2023/02/27 11:11:44;;;;;;;5.88;2.75;;;5.60;90.00;;;;;;5074621;28;20208;-66
2023/02/27 11:14:30;;;;;;;4.82;3.55;;;5.40;90.40;;;;;;5074769;28;20205;-65
2023/02/27 11:16:59;;;;;;;4.03;3.17;;;5.20;90.20;;;;;;5075201;28;20227;-64
2023/02/27 11:19:32;;;;;;;7.22;2.67;;;4.90;90.30;;;;;;5075936;28;20264;-65
2023/02/27 11:22:13;;;;;;;4.03;2.65;;;4.70;91.00;;;;;;5079226;28;20189;-66
2023/02/27 11:24:41;;;;;;;4.78;2.70;;;4.60;91.50;;;;;;5080785;28;20272;-66
2023/02/27 11:27:20;;;;;;;6.38;3.05;;;4.60;91.70;;;;;;5078768;28;20228;-66
2023/02/27 11:29:58;;;;;;;6.45;2.35;;;4.70;91.40;;;;;;5069464;28;20265;-65
2023/02/27 11:32:29;;;;;;;4.65;2.80;;;4.80;91.40;;;;;;5075307;28;20205;-65
2023/02/27 11:34:56;;;;;;;3.42;2.42;;;4.80;90.40;;;;;;5060376;28;20202;-65
2023/02/27 11:37:29;;;;;;;3.42;2.42;;;4.90;89.70;;;;;;5054904;28;20213;-65
2023/02/27 11:40:03;;;;;;;4.47;3.25;;;4.80;87.60;;;;;;5054621;28;20193;-64
2023/02/27 11:42:33;;;;;;;3.10;2.30;;;4.80;87.80;;;;;;5054402;28;20192;-66
2023/02/27 11:45:05;;;;;;;6.43;2.83;;;4.80;87.00;;;;;;5056763;28;20201;-67
2023/02/27 11:47:35;;;;;;;3.65;2.40;;;4.70;85.40;;;;;;5053775;28;20186;-66
2023/02/27 11:50:36;;;;;;;4.15;2.80;;;4.60;84.60;;;;;;5054449;28;20221;-65
2023/02/27 11:53:22;;;;;;;4.05;2.30;;;4.50;85.10;;;;;;5055684;28;20579;-65
2023/02/27 11:55:49;;;;;;;5.18;3.22;;;4.60;86.30;;;;;;5054520;28;20582;-64
2023/02/27 11:58:20;;;;;;;4.03;2.75;;;4.90;85.40;;;;;;5054693;28;20209;-65
2023/02/27 12:00:51;;;;;;;3.10;2.55;;;5.20;83.80;;;;;;5054808;28;20682;-65
2023/02/27 12:03:23;;;;;;;4.28;2.28;;;5.30;81.60;;;;;;5054794;28;20259;-64
2023/02/27 12:05:53;;;;;;;3.88;2.38;;;5.40;79.50;;;;;;5055561;28;20309;-67
2023/02/27 12:08:30;;;;;;;2.10;1.67;;;5.40;78.90;;;;;;5054477;28;20322;-66
2023/02/27 12:11:01;;;;;;;2.50;2.10;;;5.50;77.80;;;;;;5054732;28;20254;-64
2023/02/27 12:13:31;;;;;;;5.95;2.65;;;5.50;76.50;;;;;;5055203;28;20206;-64
2023/02/27 12:16:09;;;;;;;3.25;1.85;;;5.50;74.80;;;;;;5054412;28;20711;-65
2023/02/27 12:18:40;;;;;;;5.75;1.90;;;5.50;74.10;;;;;;5057062;28;20205;-67
2023/02/27 12:21:11;;;;;;;2.00;1.63;;;5.50;74.00;;;;;;5053776;28;20196;-65
2023/02/27 12:23:42;;;;;;;2.92;1.55;;;5.50;74.00;;;;;;5054687;28;20186;-64
2023/02/27 12:26:15;;;;;;;2.97;2.00;;;5.40;72.70;;;;;;5054300;28;20260;-63
2023/02/27 12:28:51;;;;;;;2.67;1.65;;;5.30;72.80;;;;;;5054661;28;20193;-65
2023/02/27 12:31:40;;;;;;;6.15;2.15;;;5.20;71.80;;;;;;5055906;28;20185;-64
2023/02/27 12:34:20;;;;;;;2.05;1.83;;;5.10;71.80;;;;;;5059560;28;20236;-65
2023/02/27 12:36:47;;;;;;;3.47;2.40;;;5.20;71.90;;;;;;5058728;28;20222;-64
2023/02/27 12:39:19;;;;;;;1.85;1.65;;;5.40;72.00;;;;;;5059057;28;20209;-64
2023/02/27 12:42:15;;;;;;;3.08;1.90;;;5.50;70.90;;;;;;5058738;28;20198;-65
2023/02/27 12:44:58;;;;;;;5.88;2.10;;;5.70;69.60;;;;;;5058576;28;20208;-65
2023/02/27 12:47:36;;;;;;;2.58;1.65;;;5.80;68.80;;;;;;5058659;28;20564;-65
2023/02/27 12:50:09;;;;;;;1.92;1.65;;;5.80;68.50;;;;;;5057916;28;20181;-64
2023/02/27 12:52:48;;;;;;;3.45;2.25;;;5.70;68.10;;;;;;5058015;28;20575;-65
2023/02/27 12:55:20;;;;;;;4.00;1.70;;;5.50;68.30;;;;;;5057582;28;20737;-64
2023/02/27 12:58:16;;;;;;;2.55;1.58;;;5.30;68.40;;;;;;5058714;28;20198;-65
2023/02/27 13:00:47;;;;;;;2.88;1.60;;;5.20;68.10;;;;;;5057791;28;20182;-64
2023/02/27 13:03:20;;;;;;;2.92;1.92;;;5.00;68.20;;;;;;5057264;28;20655;-65
2023/02/27 13:05:55;;;;;;;2.58;2.10;;;5.00;68.40;;;;;;5057514;28;20222;-65
2023/02/27 13:08:57;;;;;;;3.55;2.47;;;4.90;68.70;;;;;;5057967;28;20213;-65
2023/02/27 13:11:33;;;;;;;4.18;2.10;;;4.90;69.10;;;;;;5041954;28;20207;-65
2023/02/27 13:14:03;;;;;;;3.75;2.08;;;5.10;69.00;;;;;;5057587;28;20686;-65